createdAt,value
2019-01-24T00:01:04.815Z,76.03
2019-01-24T00:03:52.994Z,70.23
2019-01-24T00:06:40.895Z,70.63
2019-01-24T00:09:29.131Z,71.87
2019-01-24T00:12:17.108Z,71.13
2019-01-24T00:15:06.005Z,65.17
2019-01-24T00:17:53.633Z,62.27
2019-01-24T00:20:41.684Z,74.73
2019-01-24T00:23:29.717Z,67.10
2019-01-24T00:26:18.254Z,72.40
2019-01-24T00:29:06.096Z,72.60
2019-01-24T00:31:53.887Z,76.13
2019-01-24T00:34:41.883Z,72.27
2019-01-24T00:37:29.823Z,69.23
2019-01-24T00:40:18.603Z,71.17
2019-01-24T00:43:06.329Z,68.53
2019-01-24T00:45:53.845Z,66.77
2019-01-24T00:48:43.345Z,65.17
2019-01-24T00:51:31.083Z,69.53
2019-01-24T00:54:18.864Z,67.67
2019-01-24T00:57:06.516Z,75.70
2019-01-24T00:59:54.499Z,69.43
2019-01-24T01:02:42.272Z,69.93
2019-01-24T01:05:30.168Z,74.80
2019-01-24T01:08:18.238Z,63.57
2019-01-24T01:11:06.330Z,65.63
2019-01-24T01:13:54.493Z,63.97
2019-01-24T01:16:42.559Z,66.87
2019-01-24T01:19:30.453Z,64.37
2019-01-24T01:22:18.645Z,70.67
2019-01-24T01:25:08.867Z,66.83
2019-01-24T01:27:56.940Z,68.23
2019-01-24T01:30:45.130Z,75.50
2019-01-24T01:33:33.266Z,70.93
2019-01-24T01:36:21.813Z,71.97
2019-01-24T01:39:10.120Z,70.77
2019-01-24T01:41:57.651Z,74.07
2019-01-24T01:44:45.837Z,76.90
2019-01-24T01:47:33.701Z,73.77
2019-01-24T01:50:23.273Z,75.50
2019-01-24T01:53:10.777Z,72.17
2019-01-24T01:55:58.699Z,78.53
2019-01-24T01:58:46.842Z,71.47
2019-01-24T02:01:34.883Z,81.07
2019-01-24T02:04:22.671Z,75.80
2019-01-24T02:07:10.502Z,75.03
2019-01-24T02:09:58.874Z,75.00
2019-01-24T02:12:46.786Z,74.37
2019-01-24T02:15:34.803Z,76.57
2019-01-24T02:18:22.454Z,77.87
2019-01-24T02:21:10.401Z,80.87
2019-01-24T02:23:58.295Z,82.83
2019-01-24T02:26:46.245Z,79.07
2019-01-24T02:29:34.227Z,86.57
2019-01-24T02:32:22.150Z,78.93
2019-01-24T02:35:10.323Z,73.67
2019-01-24T02:37:58.331Z,82.07
2019-01-24T02:40:46.481Z,83.87
2019-01-24T02:43:34.389Z,85.23
2019-01-24T02:46:22.527Z,92.70
2019-01-24T02:49:10.285Z,74.07
2019-01-24T02:51:58.090Z,80.37
2019-01-24T02:54:46.301Z,79.47
2019-01-24T02:57:34.699Z,79.47
2019-01-24T03:00:23.457Z,76.57
2019-01-24T03:03:11.244Z,84.03
2019-01-24T03:05:59.139Z,82.40
2019-01-24T03:08:47.170Z,84.10
2019-01-24T03:11:34.644Z,85.20
2019-01-24T03:14:22.650Z,81.60
2019-01-24T03:17:10.695Z,79.87
2019-01-24T03:19:58.624Z,92.37
2019-01-24T03:22:46.689Z,76.57
2019-01-24T03:25:34.491Z,92.37
2019-01-24T03:28:23.203Z,82.37
2019-01-24T03:31:11.493Z,78.30
2019-01-24T03:33:59.609Z,85.17
2019-01-24T03:36:47.824Z,77.20
2019-01-24T03:39:35.684Z,84.90
2019-01-24T03:42:23.291Z,75.77
2019-01-24T03:45:12.804Z,76.97
2019-01-24T03:48:01.044Z,78.53
2019-01-24T03:50:49.051Z,79.40
2019-01-24T03:53:37.164Z,85.60
2019-01-24T03:56:25.372Z,82.50
2019-01-24T03:59:13.328Z,78.57
2019-01-24T04:02:01.628Z,89.40
2019-01-24T04:04:49.187Z,79.10
2019-01-24T04:07:37.259Z,81.00
2019-01-24T04:10:25.133Z,78.70
2019-01-24T04:13:13.087Z,83.40
2019-01-24T04:16:00.769Z,70.40
2019-01-24T04:18:48.901Z,80.63
2019-01-24T04:21:36.836Z,79.67
2019-01-24T04:24:25.063Z,78.83
2019-01-24T04:27:12.885Z,81.90
2019-01-24T04:30:00.558Z,82.07
2019-01-24T04:32:48.683Z,89.13
2019-01-24T04:35:36.536Z,79.77
2019-01-24T04:38:24.088Z,84.10
2019-01-24T04:41:11.814Z,83.80
2019-01-24T04:43:59.367Z,79.10
2019-01-24T04:46:47.505Z,90.27
2019-01-24T04:49:35.227Z,89.40
2019-01-24T04:52:23.003Z,86.23
2019-01-24T04:55:12.488Z,84.70
2019-01-24T04:58:00.537Z,84.43
2019-01-24T05:00:48.428Z,82.10
2019-01-24T05:03:37.110Z,91.17
2019-01-24T05:06:25.124Z,80.40
2019-01-24T05:09:13.211Z,85.97
2019-01-24T05:12:01.261Z,84.37
2019-01-24T05:14:49.233Z,82.97
2019-01-24T05:17:37.018Z,80.50
2019-01-24T05:20:24.820Z,85.23
2019-01-24T05:23:12.964Z,84.57
2019-01-24T05:26:01.448Z,82.80
2019-01-24T05:28:49.304Z,81.37
2019-01-24T05:31:37.564Z,80.30
2019-01-24T05:34:25.373Z,85.47
2019-01-24T05:37:13.121Z,87.57
2019-01-24T05:40:01.216Z,87.17
2019-01-24T05:42:49.538Z,80.67
2019-01-24T05:45:37.337Z,90.67
2019-01-24T05:48:25.757Z,82.93
2019-01-24T05:51:13.569Z,81.63
2019-01-24T05:54:01.803Z,81.73
2019-01-24T05:56:49.689Z,81.20
2019-01-24T05:59:37.913Z,83.40
2019-01-24T06:02:25.432Z,90.77
2019-01-24T06:05:13.552Z,92.87
2019-01-24T06:08:01.362Z,86.33
2019-01-24T06:10:49.648Z,80.73
2019-01-24T06:13:37.809Z,88.27
2019-01-24T06:16:25.963Z,87.47
2019-01-24T06:19:14.078Z,81.90
2019-01-24T06:22:01.971Z,75.97
2019-01-24T06:24:49.734Z,85.53
2019-01-24T06:27:37.545Z,75.10
2019-01-24T06:30:25.766Z,84.57
2019-01-24T06:33:14.116Z,86.97
2019-01-24T06:36:02.286Z,83.17
2019-01-24T06:38:50.471Z,83.87
2019-01-24T06:41:38.567Z,87.77
2019-01-24T06:44:26.826Z,88.17
2019-01-24T06:47:15.006Z,87.63
2019-01-24T06:50:03.126Z,89.33
2019-01-24T06:52:51.438Z,92.23
2019-01-24T06:55:39.763Z,89.53
2019-01-24T06:58:28.006Z,83.03
2019-01-24T07:01:15.746Z,90.77
2019-01-24T07:04:03.618Z,84.83
2019-01-24T07:06:51.364Z,80.63
2019-01-24T07:09:39.225Z,84.23
2019-01-24T07:12:27.400Z,87.33
2019-01-24T07:15:17.480Z,84.03
2019-01-24T07:18:05.286Z,83.63
2019-01-24T07:20:53.597Z,81.93
2019-01-24T07:23:41.844Z,87.33
2019-01-24T07:26:29.613Z,80.07
2019-01-24T07:29:17.508Z,78.80
2019-01-24T07:32:05.858Z,79.30
2019-01-24T07:34:53.880Z,83.67
2019-01-24T07:37:42.091Z,85.87
2019-01-24T07:40:30.229Z,81.73
2019-01-24T07:43:18.137Z,85.90
2019-01-24T07:46:07.149Z,78.30
2019-01-24T07:48:55.005Z,84.40
2019-01-24T07:51:43.284Z,74.10
2019-01-24T07:54:31.394Z,80.03
2019-01-24T07:57:19.824Z,88.33
2019-01-24T08:00:11.461Z,82.43
2019-01-24T08:02:59.105Z,91.10
2019-01-24T08:05:46.877Z,95.87
2019-01-24T08:08:34.778Z,101.73
2019-01-24T08:11:23.275Z,99.77
2019-01-24T08:14:11.505Z,97.07
2019-01-24T08:16:59.703Z,89.07
2019-01-24T08:19:47.767Z,83.30
2019-01-24T08:22:35.740Z,73.70
2019-01-24T08:25:23.767Z,100.03
2019-01-24T08:28:11.553Z,92.60
2019-01-24T08:30:59.677Z,100.43
2019-01-24T08:33:48.096Z,130.73
2019-01-24T08:36:36.342Z,112.67
2019-01-24T08:39:24.234Z,119.47
2019-01-24T08:42:12.025Z,110.50
2019-01-24T08:44:59.957Z,112.13
2019-01-24T08:47:48.044Z,107.10
2019-01-24T08:50:36.329Z,105.80
2019-01-24T08:53:24.231Z,107.47
2019-01-24T08:56:12.085Z,90.70
2019-01-24T08:58:59.918Z,94.27
2019-01-24T09:01:47.697Z,103.23
2019-01-24T09:04:35.531Z,98.80
2019-01-24T09:07:23.613Z,100.43
2019-01-24T09:10:14.318Z,100.80
2019-01-24T09:13:02.240Z,96.67
2019-01-24T09:15:50.123Z,86.60
2019-01-24T09:18:37.924Z,94.13
2019-01-24T09:21:25.789Z,83.00
2019-01-24T09:24:13.637Z,86.37
2019-01-24T09:27:01.743Z,81.17
2019-01-24T09:29:49.845Z,78.73
2019-01-24T09:32:38.025Z,81.07
2019-01-24T09:35:26.080Z,87.93
2019-01-24T09:38:13.613Z,91.20
2019-01-24T09:41:01.663Z,90.77
2019-01-24T09:43:49.567Z,93.97
2019-01-24T09:46:37.550Z,94.13
2019-01-24T09:49:25.458Z,89.30
2019-01-24T09:52:13.267Z,87.80
2019-01-24T09:55:03.303Z,94.50
2019-01-24T09:57:51.634Z,80.40
2019-01-24T10:00:39.352Z,80.40
2019-01-24T10:03:27.531Z,78.83
2019-01-24T10:06:15.422Z,79.97
2019-01-24T10:09:05.260Z,80.33
2019-01-24T10:11:53.178Z,83.20
2019-01-24T10:14:41.034Z,72.67
2019-01-24T10:17:28.836Z,74.30
2019-01-24T10:20:18.040Z,70.33
2019-01-24T10:23:05.889Z,69.60
2019-01-24T10:25:53.988Z,70.87
2019-01-24T10:28:41.923Z,73.90
2019-01-24T10:31:30.072Z,68.93
2019-01-24T10:34:17.889Z,76.13
2019-01-24T10:37:05.990Z,64.97
2019-01-24T10:39:53.910Z,67.00
2019-01-24T10:42:41.898Z,62.77
2019-01-24T10:45:29.869Z,68.73
2019-01-24T10:48:17.769Z,62.33
2019-01-24T10:51:06.382Z,68.43
2019-01-24T10:53:54.780Z,65.30
2019-01-24T10:56:43.062Z,69.43
2019-01-24T10:59:30.858Z,58.53
2019-01-24T11:02:19.070Z,61.80
2019-01-24T11:05:08.621Z,56.60
2019-01-24T11:07:56.934Z,64.20
2019-01-24T11:10:45.166Z,58.07
2019-01-24T11:13:33.069Z,60.30
2019-01-24T11:16:21.105Z,61.03
2019-01-24T11:19:09.058Z,55.40
2019-01-24T11:21:57.145Z,59.27
2019-01-24T11:24:44.746Z,51.47
2019-01-24T11:27:32.535Z,49.97
2019-01-24T11:30:25.007Z,52.30
2019-01-24T11:33:12.872Z,56.60
2019-01-24T11:36:00.951Z,60.50
2019-01-24T11:38:48.830Z,51.13
2019-01-24T11:41:36.763Z,57.97
2019-01-24T11:44:25.058Z,53.23
2019-01-24T11:47:13.375Z,54.67
2019-01-24T11:50:01.217Z,55.70
2019-01-24T11:52:49.221Z,56.53
2019-01-24T11:55:37.080Z,53.43
2019-01-24T11:58:24.945Z,50.77
2019-01-24T12:01:13.244Z,50.87
2019-01-24T12:04:00.866Z,47.03
2019-01-24T12:06:48.528Z,47.17
2019-01-24T12:09:36.855Z,51.67
2019-01-24T12:12:25.067Z,51.80
2019-01-24T12:15:14.087Z,43.60
2019-01-24T12:18:01.889Z,43.77
2019-01-24T12:20:49.944Z,40.53
2019-01-24T12:23:37.735Z,40.53
2019-01-24T12:26:25.395Z,37.77
2019-01-24T12:29:13.633Z,35.67
2019-01-24T12:32:01.871Z,32.13
2019-01-24T12:34:49.312Z,38.07
2019-01-24T12:37:37.530Z,33.67
2019-01-24T12:40:25.480Z,32.50
2019-01-24T12:43:13.862Z,33.23
2019-01-24T12:46:01.881Z,33.87
2019-01-24T12:48:49.857Z,35.97
2019-01-24T12:51:38.676Z,38.67
2019-01-24T12:54:26.839Z,40.23
2019-01-24T12:57:14.876Z,47.53
2019-01-24T13:00:02.777Z,40.50
2019-01-24T13:02:50.390Z,34.57
2019-01-24T13:05:39.000Z,37.53
2019-01-24T13:08:26.792Z,43.93
2019-01-24T13:11:14.654Z,44.87
2019-01-24T13:14:02.770Z,42.70
2019-01-24T13:16:51.016Z,44.07
2019-01-24T13:19:39.146Z,44.03
2019-01-24T13:22:27.342Z,43.00
2019-01-24T13:25:23.316Z,42.93
2019-01-24T13:28:11.509Z,45.80
2019-01-24T13:30:59.506Z,46.07
2019-01-24T13:33:47.714Z,35.27
2019-01-24T13:36:35.905Z,44.87
2019-01-24T13:39:24.169Z,38.57
2019-01-24T13:42:12.421Z,43.10
2019-01-24T13:45:00.626Z,37.70
2019-01-24T13:47:49.393Z,36.07
2019-01-24T13:50:37.322Z,40.10
2019-01-24T13:53:25.468Z,40.80
2019-01-24T13:56:13.585Z,38.93
2019-01-24T13:59:02.298Z,45.83
2019-01-24T14:01:50.145Z,43.17
2019-01-24T14:04:44.872Z,37.37
2019-01-24T14:07:33.100Z,40.47
2019-01-24T14:10:21.473Z,35.63
2019-01-24T14:13:09.379Z,37.50
2019-01-24T14:15:57.447Z,43.03
2019-01-24T14:18:45.076Z,34.67
2019-01-24T14:21:32.712Z,31.47
2019-01-24T14:24:20.887Z,34.60
2019-01-24T14:27:09.006Z,41.77
2019-01-24T14:29:56.693Z,36.03
2019-01-24T14:32:44.680Z,32.67
2019-01-24T14:35:32.992Z,39.13
2019-01-24T14:38:21.187Z,40.30
2019-01-24T14:41:09.461Z,40.60
2019-01-24T14:43:57.343Z,37.80
2019-01-24T14:46:45.071Z,35.07
2019-01-24T14:49:33.127Z,37.40
2019-01-24T14:52:21.361Z,37.97
2019-01-24T14:55:11.264Z,41.23
2019-01-24T14:57:59.482Z,40.50
2019-01-24T15:01:20.518Z,44.20
2019-01-24T15:04:08.640Z,39.27
2019-01-24T15:06:56.720Z,41.60
2019-01-24T15:09:44.766Z,37.30
2019-01-24T15:12:32.847Z,38.10
2019-01-24T15:15:21.786Z,36.73
2019-01-24T15:18:09.796Z,39.20
2019-01-24T15:20:57.819Z,41.50
2019-01-24T15:23:45.742Z,39.30
2019-01-24T15:26:33.723Z,39.63
2019-01-24T15:29:22.069Z,44.90
2019-01-24T15:32:10.075Z,44.07
2019-01-24T15:34:58.104Z,40.43
2019-01-24T15:37:46.345Z,42.37
2019-01-24T15:40:34.362Z,38.63
2019-01-24T15:43:22.402Z,35.87
2019-01-24T15:46:10.357Z,36.07
2019-01-24T15:48:58.400Z,42.77
2019-01-24T15:51:46.820Z,36.23
2019-01-24T15:54:34.657Z,40.13
2019-01-24T15:57:22.538Z,36.60
2019-01-24T16:00:17.707Z,37.57
2019-01-24T16:03:06.065Z,35.37
2019-01-24T16:05:54.033Z,41.17
2019-01-24T16:08:42.058Z,34.40
2019-01-24T16:11:29.969Z,34.10
2019-01-24T16:14:18.063Z,36.33
2019-01-24T16:17:06.465Z,38.43
2019-01-24T16:19:54.680Z,36.40
2019-01-24T16:22:43.289Z,36.73
2019-01-24T16:25:32.086Z,37.37
2019-01-24T16:28:24.618Z,36.47
2019-01-24T16:31:10.843Z,41.30
2019-01-24T16:33:58.897Z,38.67
2019-01-24T16:36:47.395Z,39.57
2019-01-24T16:39:36.170Z,39.03
2019-01-24T16:42:27.148Z,36.20
2019-01-24T16:45:18.614Z,39.90
2019-01-24T16:48:06.963Z,42.63
2019-01-24T16:50:54.821Z,40.10
2019-01-24T16:53:43.154Z,37.87
2019-01-24T16:56:30.918Z,41.17
2019-01-24T16:59:18.892Z,38.40
2019-01-24T17:02:07.059Z,41.67
2019-01-24T17:04:55.277Z,42.77
2019-01-24T17:07:43.161Z,42.50
2019-01-24T17:10:31.088Z,40.80
2019-01-24T17:13:19.063Z,38.53
2019-01-24T17:16:07.400Z,44.73
2019-01-24T17:18:55.706Z,38.47
2019-01-24T17:21:43.881Z,32.70
2019-01-24T17:24:32.050Z,40.40
2019-01-24T17:27:20.074Z,42.87
2019-01-24T17:30:10.496Z,43.97
2019-01-24T17:32:58.984Z,36.87
2019-01-24T17:35:47.378Z,44.20
2019-01-24T17:38:35.113Z,42.20
2019-01-24T17:41:23.454Z,39.10
2019-01-24T17:44:11.431Z,40.10
2019-01-24T17:46:59.501Z,42.53
2019-01-24T17:49:47.421Z,36.07
2019-01-24T17:52:35.401Z,36.23
2019-01-24T17:55:28.999Z,35.33
2019-01-24T17:58:16.819Z,35.87
2019-01-24T18:01:05.150Z,34.50
2019-01-24T18:03:57.111Z,27.37
2019-01-24T18:06:44.996Z,33.57
2019-01-24T18:09:33.081Z,33.33
2019-01-24T18:12:20.998Z,28.47
2019-01-24T18:15:12.731Z,31.70
2019-01-24T18:18:00.554Z,31.13
2019-01-24T18:20:48.824Z,30.00
2019-01-24T18:23:37.205Z,32.87
2019-01-24T18:26:25.140Z,31.60
2019-01-24T18:29:12.953Z,30.90
2019-01-24T18:32:00.958Z,33.00
2019-01-24T18:34:48.934Z,29.53
2019-01-24T18:37:37.276Z,31.57
2019-01-24T18:40:26.888Z,35.70
2019-01-24T18:43:24.266Z,35.30
2019-01-24T18:46:12.388Z,39.37
2019-01-24T18:49:01.957Z,31.90
2019-01-24T18:51:49.884Z,33.30
2019-01-24T18:54:38.084Z,36.67
2019-01-24T18:57:26.547Z,37.10
2019-01-24T19:00:26.133Z,33.80
2019-01-24T19:03:13.957Z,37.63
2019-01-24T19:06:02.702Z,40.63
2019-01-24T19:08:50.856Z,37.53
2019-01-24T19:11:41.910Z,41.57
2019-01-24T19:14:31.441Z,36.03
2019-01-24T19:17:19.776Z,34.63
2019-01-24T19:20:09.771Z,38.37
2019-01-24T19:23:00.449Z,37.83
2019-01-24T19:25:48.824Z,40.47
2019-01-24T19:28:36.700Z,40.70
2019-01-24T19:31:24.782Z,31.60
2019-01-24T19:34:13.530Z,36.87
2019-01-24T19:37:01.531Z,38.87
2019-01-24T19:39:49.039Z,33.57
2019-01-24T19:42:36.795Z,33.10
2019-01-24T19:45:25.901Z,36.73
2019-01-24T19:48:13.901Z,38.97
2019-01-24T19:51:01.994Z,34.10
2019-01-24T19:53:50.198Z,37.87
2019-01-24T19:56:38.081Z,35.20
2019-01-24T19:59:26.121Z,35.97
2019-01-24T20:02:13.890Z,31.93
2019-01-24T20:05:01.764Z,35.57
2019-01-24T20:07:49.784Z,36.63
2019-01-24T20:10:38.295Z,36.47
2019-01-24T20:13:26.529Z,34.03
2019-01-24T20:16:14.373Z,37.43
2019-01-24T20:19:05.827Z,41.73
2019-01-24T20:21:53.499Z,35.37
2019-01-24T20:24:41.622Z,40.93
2019-01-24T20:27:29.479Z,38.20
2019-01-24T20:30:19.743Z,36.00
2019-01-24T20:33:08.052Z,37.80
2019-01-24T20:35:58.181Z,38.03
2019-01-24T20:38:46.305Z,41.57
2019-01-24T20:41:35.172Z,39.20
2019-01-24T20:44:26.111Z,43.07
2019-01-24T20:47:14.203Z,42.50
2019-01-24T20:50:03.943Z,43.05
2019-01-24T20:52:52.373Z,37.97
2019-01-24T20:55:44.163Z,35.47
2019-01-24T20:58:33.552Z,39.70
2019-01-24T21:01:24.181Z,38.80
2019-01-24T21:04:13.282Z,35.33
2019-01-24T21:07:02.483Z,37.07
2019-01-24T21:09:51.416Z,43.03
2019-01-24T21:12:40.416Z,36.00
2019-01-24T21:15:28.715Z,49.17
2019-01-24T21:18:16.942Z,35.53
2019-01-24T21:21:05.065Z,40.90
2019-01-24T21:23:53.256Z,39.67
2019-01-24T21:26:41.393Z,29.93
2019-01-24T21:29:29.275Z,31.83
2019-01-24T21:32:17.171Z,32.50
2019-01-24T21:35:09.409Z,32.17
2019-01-24T21:37:57.378Z,37.77
2019-01-24T21:40:45.380Z,34.57
2019-01-24T21:43:33.184Z,34.27
2019-01-24T21:46:21.410Z,36.60
2019-01-24T21:49:09.882Z,35.57
2019-01-24T21:51:58.098Z,39.37
2019-01-24T21:54:46.964Z,35.33
2019-01-24T21:57:34.969Z,38.97
2019-01-24T22:00:24.083Z,36.53
2019-01-24T22:03:12.062Z,34.57
2019-01-24T22:06:00.519Z,34.57
2019-01-24T22:08:48.533Z,34.80
2019-01-24T22:11:36.640Z,34.50
2019-01-24T22:14:26.420Z,34.53
2019-01-24T22:17:14.538Z,36.13
2019-01-24T22:20:02.840Z,28.47
2019-01-24T22:22:50.969Z,33.00
2019-01-24T22:25:41.232Z,33.47
2019-01-24T22:28:29.460Z,35.07
2019-01-24T22:31:17.332Z,32.90
2019-01-24T22:34:05.513Z,33.00
2019-01-24T22:36:53.301Z,28.53
2019-01-24T22:39:40.931Z,29.93
2019-01-24T22:42:29.921Z,33.37
2019-01-24T22:45:20.567Z,34.10
2019-01-24T22:48:08.914Z,31.60
2019-01-24T22:50:56.414Z,28.13
2019-01-24T22:53:44.570Z,29.27
2019-01-24T22:56:35.530Z,39.23
2019-01-24T22:59:22.143Z,29.70
2019-01-24T23:02:17.883Z,28.50
2019-01-24T23:05:06.509Z,32.97
2019-01-24T23:07:54.669Z,33.97
2019-01-24T23:10:42.655Z,30.37
2019-01-24T23:13:30.661Z,33.23
2019-01-24T23:16:18.865Z,32.43
2019-01-24T23:19:07.317Z,30.73
2019-01-24T23:21:55.382Z,29.30
2019-01-24T23:24:43.389Z,32.20
2019-01-24T23:27:31.276Z,33.27
2019-01-24T23:30:19.015Z,29.70
2019-01-24T23:33:07.066Z,36.10
2019-01-24T23:35:55.434Z,29.43
2019-01-24T23:38:43.060Z,28.87
2019-01-24T23:41:31.063Z,32.13
2019-01-24T23:44:19.346Z,33.93
2019-01-24T23:47:07.223Z,32.90
2019-01-24T23:49:55.412Z,32.60
2019-01-24T23:52:43.541Z,34.13
2019-01-24T23:55:31.620Z,35.60
2019-01-24T23:58:19.627Z,34.87
